sensor_id;sensor_type;location;lat;lon;timestamp;P1;durP1;ratioP1;P2;durP2;ratioP2
78987;SDS011;68389;44.716;37.756;2023-04-06T00:00:02;1.52;;;1.20;;
78987;SDS011;68389;44.716;37.756;2023-04-06T00:01:05;2.80;;;1.20;;
78987;SDS011;68389;44.716;37.756;2023-04-06T00:02:06;2.38;;;1.50;;
78987;SDS011;68389;44.716;37.756;2023-04-06T00:03:07;3.25;;;1.23;;
78987;SDS011;68389;44.716;37.756;2023-04-06T00:04:09;3.00;;;1.25;;
78987;SDS011;68389;44.716;37.756;2023-04-06T00:05:10;2.80;;;1.25;;
78987;SDS011;68389;44.716;37.756;2023-04-06T00:06:12;2.35;;;1.17;;
78987;SDS011;68389;44.716;37.756;2023-04-06T00:07:13;3.30;;;1.27;;
78987;SDS011;68389;44.716;37.756;2023-04-06T00:08:14;2.28;;;1.35;;
78987;SDS011;68389;44.716;37.756;2023-04-06T00:09:15;2.45;;;1.40;;
78987;SDS011;68389;44.716;37.756;2023-04-06T00:10:17;2.72;;;1.50;;
78987;SDS011;68389;44.716;37.756;2023-04-06T00:11:18;3.05;;;1.20;;
78987;SDS011;68389;44.716;37.756;2023-04-06T00:12:20;3.35;;;1.50;;
78987;SDS011;68389;44.716;37.756;2023-04-06T00:13:21;1.58;;;1.20;;
78987;SDS011;68389;44.716;37.756;2023-04-06T00:14:23;2.65;;;1.20;;
78987;SDS011;68389;44.716;37.756;2023-04-06T00:15:24;2.90;;;1.38;;
78987;SDS011;68389;44.716;37.756;2023-04-06T00:16:26;4.20;;;1.30;;
78987;SDS011;68389;44.716;37.756;2023-04-06T00:17:27;1.42;;;1.10;;
78987;SDS011;68389;44.716;37.756;2023-04-06T00:18:29;3.15;;;1.40;;
78987;SDS011;68389;44.716;37.756;2023-04-06T00:19:30;1.85;;;1.25;;
78987;SDS011;68389;44.716;37.756;2023-04-06T00:20:32;1.95;;;1.20;;
78987;SDS011;68389;44.716;37.756;2023-04-06T00:21:33;2.42;;;1.33;;
78987;SDS011;68389;44.716;37.756;2023-04-06T00:22:34;2.22;;;1.30;;
78987;SDS011;68389;44.716;37.756;2023-04-06T00:23:36;2.28;;;1.15;;
78987;SDS011;68389;44.716;37.756;2023-04-06T00:24:37;1.67;;;1.20;;
78987;SDS011;68389;44.716;37.756;2023-04-06T00:25:38;2.78;;;1.40;;
78987;SDS011;68389;44.716;37.756;2023-04-06T00:26:40;2.35;;;1.20;;
78987;SDS011;68389;44.716;37.756;2023-04-06T00:27:41;1.83;;;1.20;;
78987;SDS011;68389;44.716;37.756;2023-04-06T00:28:42;1.63;;;1.05;;
78987;SDS011;68389;44.716;37.756;2023-04-06T00:29:44;2.55;;;1.30;;
78987;SDS011;68389;44.716;37.756;2023-04-06T00:30:46;2.80;;;1.30;;
78987;SDS011;68389;44.716;37.756;2023-04-06T00:31:47;3.10;;;1.30;;
78987;SDS011;68389;44.716;37.756;2023-04-06T00:32:48;2.75;;;1.52;;
78987;SDS011;68389;44.716;37.756;2023-04-06T00:33:50;1.73;;;1.10;;
78987;SDS011;68389;44.716;37.756;2023-04-06T00:34:52;3.63;;;1.30;;
78987;SDS011;68389;44.716;37.756;2023-04-06T00:35:53;1.73;;;1.13;;
78987;SDS011;68389;44.716;37.756;2023-04-06T00:36:54;2.92;;;1.20;;
78987;SDS011;68389;44.716;37.756;2023-04-06T00:37:55;1.58;;;1.20;;
78987;SDS011;68389;44.716;37.756;2023-04-06T00:38:57;2.17;;;1.17;;
78987;SDS011;68389;44.716;37.756;2023-04-06T00:39:58;2.88;;;1.23;;
78987;SDS011;68389;44.716;37.756;2023-04-06T00:40:59;3.67;;;1.42;;
78987;SDS011;68389;44.716;37.756;2023-04-06T00:42:00;2.75;;;1.30;;
78987;SDS011;68389;44.716;37.756;2023-04-06T00:43:13;1.17;;;1.05;;
78987;SDS011;68389;44.716;37.756;2023-04-06T00:44:15;2.72;;;1.23;;
78987;SDS011;68389;44.716;37.756;2023-04-06T00:45:16;1.35;;;1.02;;
78987;SDS011;68389;44.716;37.756;2023-04-06T00:46:17;3.28;;;1.25;;
78987;SDS011;68389;44.716;37.756;2023-04-06T00:47:19;1.85;;;1.10;;
78987;SDS011;68389;44.716;37.756;2023-04-06T00:48:20;2.50;;;1.27;;
78987;SDS011;68389;44.716;37.756;2023-04-06T00:49:22;2.22;;;1.25;;
78987;SDS011;68389;44.716;37.756;2023-04-06T00:50:23;2.40;;;1.25;;
78987;SDS011;68389;44.716;37.756;2023-04-06T00:51:25;1.98;;;1.10;;
78987;SDS011;68389;44.716;37.756;2023-04-06T00:52:27;1.38;;;1.10;;
78987;SDS011;68389;44.716;37.756;2023-04-06T00:53:28;2.63;;;1.30;;
78987;SDS011;68389;44.716;37.756;2023-04-06T00:54:30;1.48;;;1.10;;
78987;SDS011;68389;44.716;37.756;2023-04-06T00:55:31;1.92;;;1.10;;
78987;SDS011;68389;44.716;37.756;2023-04-06T00:56:32;2.95;;;1.20;;
78987;SDS011;68389;44.716;37.756;2023-04-06T00:57:34;1.30;;;0.90;;
78987;SDS011;68389;44.716;37.756;2023-04-06T00:58:35;2.58;;;1.10;;
78987;SDS011;68389;44.716;37.756;2023-04-06T00:59:39;2.08;;;1.30;;
78987;SDS011;68389;44.716;37.756;2023-04-06T01:00:41;3.30;;;1.40;;
78987;SDS011;68389;44.716;37.756;2023-04-06T01:01:42;2.53;;;1.20;;
78987;SDS011;68389;44.716;37.756;2023-04-06T01:02:44;1.58;;;1.10;;
78987;SDS011;68389;44.716;37.756;2023-04-06T01:03:48;2.60;;;1.10;;
78987;SDS011;68389;44.716;37.756;2023-04-06T01:04:51;2.70;;;1.08;;
78987;SDS011;68389;44.716;37.756;2023-04-06T01:05:54;2.38;;;1.20;;
78987;SDS011;68389;44.716;37.756;2023-04-06T01:06:58;2.30;;;1.05;;
78987;SDS011;68389;44.716;37.756;2023-04-06T01:08:00;2.90;;;1.50;;
78987;SDS011;68389;44.716;37.756;2023-04-06T01:09:01;2.63;;;1.10;;
78987;SDS011;68389;44.716;37.756;2023-04-06T01:10:03;1.55;;;0.95;;
78987;SDS011;68389;44.716;37.756;2023-04-06T01:11:05;2.38;;;1.10;;
78987;SDS011;68389;44.716;37.756;2023-04-06T01:12:06;2.50;;;1.23;;
78987;SDS011;68389;44.716;37.756;2023-04-06T01:13:07;1.50;;;0.93;;
78987;SDS011;68389;44.716;37.756;2023-04-06T01:14:09;2.30;;;1.13;;
78987;SDS011;68389;44.716;37.756;2023-04-06T01:15:10;2.03;;;1.05;;
78987;SDS011;68389;44.716;37.756;2023-04-06T01:16:12;2.45;;;1.10;;
78987;SDS011;68389;44.716;37.756;2023-04-06T01:17:14;2.08;;;1.00;;
78987;SDS011;68389;44.716;37.756;2023-04-06T01:18:16;3.20;;;1.55;;
78987;SDS011;68389;44.716;37.756;2023-04-06T01:19:17;1.33;;;1.08;;
78987;SDS011;68389;44.716;37.756;2023-04-06T01:20:19;1.10;;;1.00;;
78987;SDS011;68389;44.716;37.756;2023-04-06T01:21:21;2.03;;;1.15;;
78987;SDS011;68389;44.716;37.756;2023-04-06T01:22:23;1.58;;;1.00;;
78987;SDS011;68389;44.716;37.756;2023-04-06T01:23:25;2.05;;;0.82;;
78987;SDS011;68389;44.716;37.756;2023-04-06T01:24:27;1.50;;;1.00;;
78987;SDS011;68389;44.716;37.756;2023-04-06T01:25:28;3.33;;;1.20;;
78987;SDS011;68389;44.716;37.756;2023-04-06T01:26:29;1.48;;;1.08;;
78987;SDS011;68389;44.716;37.756;2023-04-06T01:27:31;2.00;;;1.10;;
78987;SDS011;68389;44.716;37.756;2023-04-06T01:28:32;2.97;;;1.30;;
78987;SDS011;68389;44.716;37.756;2023-04-06T01:29:34;1.45;;;0.85;;
78987;SDS011;68389;44.716;37.756;2023-04-06T01:30:35;1.60;;;1.00;;
78987;SDS011;68389;44.716;37.756;2023-04-06T01:31:37;1.42;;;1.15;;
78987;SDS011;68389;44.716;37.756;2023-04-06T01:32:39;1.40;;;1.10;;
78987;SDS011;68389;44.716;37.756;2023-04-06T01:33:40;2.30;;;1.23;;
78987;SDS011;68389;44.716;37.756;2023-04-06T01:34:41;2.08;;;1.17;;
78987;SDS011;68389;44.716;37.756;2023-04-06T01:35:42;1.58;;;1.00;;
78987;SDS011;68389;44.716;37.756;2023-04-06T01:36:44;1.73;;;1.00;;
78987;SDS011;68389;44.716;37.756;2023-04-06T01:37:45;1.70;;;1.35;;
78987;SDS011;68389;44.716;37.756;2023-04-06T01:38:46;1.83;;;0.90;;
78987;SDS011;68389;44.716;37.756;2023-04-06T01:39:48;1.50;;;0.93;;
78987;SDS011;68389;44.716;37.756;2023-04-06T01:40:49;2.67;;;1.13;;
78987;SDS011;68389;44.716;37.756;2023-04-06T01:41:50;3.22;;;1.00;;
78987;SDS011;68389;44.716;37.756;2023-04-06T01:42:52;1.13;;;0.93;;
78987;SDS011;68389;44.716;37.756;2023-04-06T01:43:53;2.38;;;1.00;;
78987;SDS011;68389;44.716;37.756;2023-04-06T01:44:55;1.65;;;0.90;;
78987;SDS011;68389;44.716;37.756;2023-04-06T01:45:56;2.50;;;1.10;;
78987;SDS011;68389;44.716;37.756;2023-04-06T01:46:57;3.10;;;1.00;;
78987;SDS011;68389;44.716;37.756;2023-04-06T01:47:59;2.00;;;1.00;;
78987;SDS011;68389;44.716;37.756;2023-04-06T01:49:00;1.73;;;0.90;;
78987;SDS011;68389;44.716;37.756;2023-04-06T01:50:01;3.78;;;0.93;;
78987;SDS011;68389;44.716;37.756;2023-04-06T01:51:05;2.72;;;0.80;;
78987;SDS011;68389;44.716;37.756;2023-04-06T01:52:07;1.08;;;0.88;;
78987;SDS011;68389;44.716;37.756;2023-04-06T01:53:08;1.33;;;0.80;;
78987;SDS011;68389;44.716;37.756;2023-04-06T01:54:10;1.38;;;0.80;;
78987;SDS011;68389;44.716;37.756;2023-04-06T01:55:11;1.45;;;1.20;;
78987;SDS011;68389;44.716;37.756;2023-04-06T01:56:12;1.35;;;0.95;;
78987;SDS011;68389;44.716;37.756;2023-04-06T01:57:14;2.05;;;1.00;;
78987;SDS011;68389;44.716;37.756;2023-04-06T01:58:15;2.97;;;1.00;;
78987;SDS011;68389;44.716;37.756;2023-04-06T01:59:16;2.22;;;1.15;;
78987;SDS011;68389;44.716;37.756;2023-04-06T02:00:18;1.33;;;0.82;;
78987;SDS011;68389;44.716;37.756;2023-04-06T02:01:19;2.08;;;1.10;;
78987;SDS011;68389;44.716;37.756;2023-04-06T02:02:20;2.15;;;0.90;;
78987;SDS011;68389;44.716;37.756;2023-04-06T02:03:21;2.35;;;1.08;;
78987;SDS011;68389;44.716;37.756;2023-04-06T02:04:23;1.27;;;0.90;;
78987;SDS011;68389;44.716;37.756;2023-04-06T02:05:24;2.63;;;0.93;;
78987;SDS011;68389;44.716;37.756;2023-04-06T02:06:26;1.42;;;0.90;;
78987;SDS011;68389;44.716;37.756;2023-04-06T02:07:28;2.38;;;1.00;;
78987;SDS011;68389;44.716;37.756;2023-04-06T02:08:29;1.60;;;0.90;;
78987;SDS011;68389;44.716;37.756;2023-04-06T02:09:30;1.35;;;0.85;;
78987;SDS011;68389;44.716;37.756;2023-04-06T02:10:32;1.75;;;0.80;;
78987;SDS011;68389;44.716;37.756;2023-04-06T02:11:34;1.33;;;0.90;;
78987;SDS011;68389;44.716;37.756;2023-04-06T02:12:36;2.67;;;0.88;;
78987;SDS011;68389;44.716;37.756;2023-04-06T02:13:37;0.90;;;0.77;;
78987;SDS011;68389;44.716;37.756;2023-04-06T02:14:38;1.38;;;0.90;;
78987;SDS011;68389;44.716;37.756;2023-04-06T02:15:40;2.03;;;1.30;;
78987;SDS011;68389;44.716;37.756;2023-04-06T02:16:41;1.60;;;0.90;;
78987;SDS011;68389;44.716;37.756;2023-04-06T02:17:42;2.17;;;0.90;;
78987;SDS011;68389;44.716;37.756;2023-04-06T02:18:43;1.52;;;0.90;;
78987;SDS011;68389;44.716;37.756;2023-04-06T02:19:45;1.85;;;0.90;;
78987;SDS011;68389;44.716;37.756;2023-04-06T02:20:47;2.03;;;0.80;;
78987;SDS011;68389;44.716;37.756;2023-04-06T02:21:48;1.25;;;0.77;;
78987;SDS011;68389;44.716;37.756;2023-04-06T02:22:49;0.98;;;0.80;;
78987;SDS011;68389;44.716;37.756;2023-04-06T02:23:51;0.98;;;0.77;;
78987;SDS011;68389;44.716;37.756;2023-04-06T02:24:52;1.67;;;0.75;;
78987;SDS011;68389;44.716;37.756;2023-04-06T02:25:53;1.10;;;0.80;;
78987;SDS011;68389;44.716;37.756;2023-04-06T02:26:55;1.88;;;0.90;;
78987;SDS011;68389;44.716;37.756;2023-04-06T02:27:56;1.98;;;1.10;;
78987;SDS011;68389;44.716;37.756;2023-04-06T02:28:57;1.35;;;0.90;;
78987;SDS011;68389;44.716;37.756;2023-04-06T02:29:58;1.42;;;0.80;;
78987;SDS011;68389;44.716;37.756;2023-04-06T02:31:00;1.08;;;0.82;;
78987;SDS011;68389;44.716;37.756;2023-04-06T02:32:01;1.50;;;0.88;;
78987;SDS011;68389;44.716;37.756;2023-04-06T02:33:02;2.15;;;1.10;;
78987;SDS011;68389;44.716;37.756;2023-04-06T02:34:04;1.15;;;0.80;;
78987;SDS011;68389;44.716;37.756;2023-04-06T02:35:05;2.13;;;0.82;;
78987;SDS011;68389;44.716;37.756;2023-04-06T02:36:07;1.45;;;0.82;;
78987;SDS011;68389;44.716;37.756;2023-04-06T02:37:08;0.98;;;0.80;;
78987;SDS011;68389;44.716;37.756;2023-04-06T02:38:10;1.52;;;0.90;;
78987;SDS011;68389;44.716;37.756;2023-04-06T02:39:11;0.95;;;0.63;;
78987;SDS011;68389;44.716;37.756;2023-04-06T02:40:13;1.58;;;1.20;;
78987;SDS011;68389;44.716;37.756;2023-04-06T02:41:15;1.75;;;0.80;;
78987;SDS011;68389;44.716;37.756;2023-04-06T02:42:16;1.40;;;0.80;;
78987;SDS011;68389;44.716;37.756;2023-04-06T02:43:18;1.77;;;0.80;;
78987;SDS011;68389;44.716;37.756;2023-04-06T02:44:19;0.95;;;0.73;;
78987;SDS011;68389;44.716;37.756;2023-04-06T02:45:21;0.95;;;0.70;;
78987;SDS011;68389;44.716;37.756;2023-04-06T02:46:22;0.75;;;0.70;;
78987;SDS011;68389;44.716;37.756;2023-04-06T02:47:23;1.30;;;1.20;;
78987;SDS011;68389;44.716;37.756;2023-04-06T02:48:25;1.95;;;0.90;;
78987;SDS011;68389;44.716;37.756;2023-04-06T02:49:26;1.75;;;0.90;;
78987;SDS011;68389;44.716;37.756;2023-04-06T02:50:27;2.22;;;0.82;;
78987;SDS011;68389;44.716;37.756;2023-04-06T02:51:28;0.98;;;0.75;;
78987;SDS011;68389;44.716;37.756;2023-04-06T02:52:30;2.50;;;0.90;;
78987;SDS011;68389;44.716;37.756;2023-04-06T02:53:31;2.30;;;1.02;;
78987;SDS011;68389;44.716;37.756;2023-04-06T02:54:33;1.77;;;0.70;;
78987;SDS011;68389;44.716;37.756;2023-04-06T02:55:34;1.15;;;0.70;;
78987;SDS011;68389;44.716;37.756;2023-04-06T02:56:35;1.65;;;0.80;;
78987;SDS011;68389;44.716;37.756;2023-04-06T02:57:37;1.33;;;0.80;;
78987;SDS011;68389;44.716;37.756;2023-04-06T02:58:38;2.10;;;1.02;;
78987;SDS011;68389;44.716;37.756;2023-04-06T02:59:39;1.23;;;0.80;;
78987;SDS011;68389;44.716;37.756;2023-04-06T03:00:41;2.63;;;1.00;;
78987;SDS011;68389;44.716;37.756;2023-04-06T03:01:42;1.35;;;0.70;;
78987;SDS011;68389;44.716;37.756;2023-04-06T03:02:43;2.50;;;0.95;;
78987;SDS011;68389;44.716;37.756;2023-04-06T03:03:45;1.40;;;0.80;;
78987;SDS011;68389;44.716;37.756;2023-04-06T03:04:46;2.10;;;0.70;;
78987;SDS011;68389;44.716;37.756;2023-04-06T03:05:48;1.33;;;0.90;;
78987;SDS011;68389;44.716;37.756;2023-04-06T03:06:49;1.13;;;0.80;;
78987;SDS011;68389;44.716;37.756;2023-04-06T03:07:50;1.05;;;0.80;;
78987;SDS011;68389;44.716;37.756;2023-04-06T03:08:52;1.15;;;0.77;;
78987;SDS011;68389;44.716;37.756;2023-04-06T03:09:53;1.17;;;0.70;;
78987;SDS011;68389;44.716;37.756;2023-04-06T03:10:54;1.90;;;0.75;;
78987;SDS011;68389;44.716;37.756;2023-04-06T03:11:56;1.00;;;0.63;;
78987;SDS011;68389;44.716;37.756;2023-04-06T03:12:58;1.80;;;1.00;;
78987;SDS011;68389;44.716;37.756;2023-04-06T03:13:59;0.80;;;0.77;;
78987;SDS011;68389;44.716;37.756;2023-04-06T03:15:00;1.15;;;0.70;;
78987;SDS011;68389;44.716;37.756;2023-04-06T03:16:01;2.92;;;1.40;;
78987;SDS011;68389;44.716;37.756;2023-04-06T03:17:03;1.38;;;0.90;;
78987;SDS011;68389;44.716;37.756;2023-04-06T03:18:04;2.80;;;0.80;;
78987;SDS011;68389;44.716;37.756;2023-04-06T03:19:05;2.03;;;1.02;;
78987;SDS011;68389;44.716;37.756;2023-04-06T03:20:07;1.25;;;0.77;;
78987;SDS011;68389;44.716;37.756;2023-04-06T03:21:08;1.48;;;0.77;;
78987;SDS011;68389;44.716;37.756;2023-04-06T03:22:10;2.15;;;1.00;;
78987;SDS011;68389;44.716;37.756;2023-04-06T03:23:11;1.55;;;0.80;;
78987;SDS011;68389;44.716;37.756;2023-04-06T03:24:12;2.22;;;0.77;;
78987;SDS011;68389;44.716;37.756;2023-04-06T03:25:14;1.45;;;0.80;;
78987;SDS011;68389;44.716;37.756;2023-04-06T03:26:16;1.75;;;0.80;;
78987;SDS011;68389;44.716;37.756;2023-04-06T03:27:17;1.13;;;0.80;;
78987;SDS011;68389;44.716;37.756;2023-04-06T03:28:18;1.38;;;0.80;;
78987;SDS011;68389;44.716;37.756;2023-04-06T03:29:20;0.80;;;0.68;;
78987;SDS011;68389;44.716;37.756;2023-04-06T03:30:21;2.25;;;1.00;;
78987;SDS011;68389;44.716;37.756;2023-04-06T03:31:22;2.05;;;0.60;;
78987;SDS011;68389;44.716;37.756;2023-04-06T03:32:24;1.33;;;1.02;;
78987;SDS011;68389;44.716;37.756;2023-04-06T03:33:25;1.17;;;0.70;;
78987;SDS011;68389;44.716;37.756;2023-04-06T03:34:29;1.10;;;0.80;;
78987;SDS011;68389;44.716;37.756;2023-04-06T03:35:30;1.23;;;0.60;;
78987;SDS011;68389;44.716;37.756;2023-04-06T03:36:32;0.82;;;0.63;;
78987;SDS011;68389;44.716;37.756;2023-04-06T03:37:34;1.83;;;0.73;;
78987;SDS011;68389;44.716;37.756;2023-04-06T03:38:36;0.93;;;0.88;;
78987;SDS011;68389;44.716;37.756;2023-04-06T03:39:37;1.48;;;0.80;;
78987;SDS011;68389;44.716;37.756;2023-04-06T03:40:38;1.63;;;0.80;;
78987;SDS011;68389;44.716;37.756;2023-04-06T03:41:40;1.20;;;0.70;;
78987;SDS011;68389;44.716;37.756;2023-04-06T03:42:41;1.30;;;0.60;;
78987;SDS011;68389;44.716;37.756;2023-04-06T03:43:42;1.33;;;0.80;;
78987;SDS011;68389;44.716;37.756;2023-04-06T03:44:44;1.15;;;0.70;;
78987;SDS011;68389;44.716;37.756;2023-04-06T03:45:45;1.17;;;0.60;;
78987;SDS011;68389;44.716;37.756;2023-04-06T03:46:47;0.60;;;0.60;;
78987;SDS011;68389;44.716;37.756;2023-04-06T03:47:48;1.25;;;0.80;;
78987;SDS011;68389;44.716;37.756;2023-04-06T03:48:49;1.80;;;0.70;;
78987;SDS011;68389;44.716;37.756;2023-04-06T03:49:50;2.47;;;0.90;;
78987;SDS011;68389;44.716;37.756;2023-04-06T03:50:52;3.70;;;0.93;;
78987;SDS011;68389;44.716;37.756;2023-04-06T03:51:53;1.73;;;0.70;;
78987;SDS011;68389;44.716;37.756;2023-04-06T03:52:54;1.58;;;1.08;;
78987;SDS011;68389;44.716;37.756;2023-04-06T03:53:56;1.38;;;0.68;;
78987;SDS011;68389;44.716;37.756;2023-04-06T03:54:57;0.60;;;0.60;;
78987;SDS011;68389;44.716;37.756;2023-04-06T03:55:58;1.95;;;0.60;;
78987;SDS011;68389;44.716;37.756;2023-04-06T03:57:00;2.13;;;0.57;;
78987;SDS011;68389;44.716;37.756;2023-04-06T03:58:01;1.77;;;0.80;;
78987;SDS011;68389;44.716;37.756;2023-04-06T03:59:03;2.15;;;0.77;;
78987;SDS011;68389;44.716;37.756;2023-04-06T04:00:05;1.13;;;1.00;;
78987;SDS011;68389;44.716;37.756;2023-04-06T04:01:07;3.90;;;1.20;;
78987;SDS011;68389;44.716;37.756;2023-04-06T04:02:08;3.97;;;1.17;;
78987;SDS011;68389;44.716;37.756;2023-04-06T04:03:09;3.38;;;1.27;;
78987;SDS011;68389;44.716;37.756;2023-04-06T04:04:10;2.08;;;0.85;;
78987;SDS011;68389;44.716;37.756;2023-04-06T04:05:12;3.90;;;1.27;;
78987;SDS011;68389;44.716;37.756;2023-04-06T04:06:13;8.90;;;1.98;;
78987;SDS011;68389;44.716;37.756;2023-04-06T04:07:14;15.27;;;3.00;;
78987;SDS011;68389;44.716;37.756;2023-04-06T04:08:16;31.60;;;6.05;;
78987;SDS011;68389;44.716;37.756;2023-04-06T04:09:17;15.10;;;3.65;;
78987;SDS011;68389;44.716;37.756;2023-04-06T04:10:18;21.38;;;3.75;;
78987;SDS011;68389;44.716;37.756;2023-04-06T04:11:20;24.00;;;5.35;;
78987;SDS011;68389;44.716;37.756;2023-04-06T04:12:21;22.20;;;4.72;;
78987;SDS011;68389;44.716;37.756;2023-04-06T04:13:22;23.65;;;6.75;;
78987;SDS011;68389;44.716;37.756;2023-04-06T04:14:24;24.83;;;5.32;;
78987;SDS011;68389;44.716;37.756;2023-04-06T04:15:26;26.33;;;6.05;;
78987;SDS011;68389;44.716;37.756;2023-04-06T04:16:27;23.83;;;6.13;;
78987;SDS011;68389;44.716;37.756;2023-04-06T04:17:28;22.15;;;5.47;;
78987;SDS011;68389;44.716;37.756;2023-04-06T04:18:30;24.20;;;5.95;;
78987;SDS011;68389;44.716;37.756;2023-04-06T04:19:31;21.70;;;5.25;;
78987;SDS011;68389;44.716;37.756;2023-04-06T04:20:32;20.05;;;5.13;;
78987;SDS011;68389;44.716;37.756;2023-04-06T04:21:41;20.83;;;4.45;;
78987;SDS011;68389;44.716;37.756;2023-04-06T04:22:46;17.80;;;4.82;;
78987;SDS011;68389;44.716;37.756;2023-04-06T04:23:48;19.65;;;4.28;;
78987;SDS011;68389;44.716;37.756;2023-04-06T04:24:49;15.60;;;3.65;;
78987;SDS011;68389;44.716;37.756;2023-04-06T04:25:50;19.75;;;5.07;;
78987;SDS011;68389;44.716;37.756;2023-04-06T04:26:52;23.25;;;7.28;;
78987;SDS011;68389;44.716;37.756;2023-04-06T04:27:53;23.45;;;7.85;;
78987;SDS011;68389;44.716;37.756;2023-04-06T04:28:55;24.95;;;7.53;;
78987;SDS011;68389;44.716;37.756;2023-04-06T04:29:56;22.52;;;5.30;;
78987;SDS011;68389;44.716;37.756;2023-04-06T04:30:58;17.98;;;4.78;;
78987;SDS011;68389;44.716;37.756;2023-04-06T04:31:59;21.00;;;4.80;;
78987;SDS011;68389;44.716;37.756;2023-04-06T04:33:00;20.98;;;4.88;;
78987;SDS011;68389;44.716;37.756;2023-04-06T04:34:02;20.33;;;5.45;;
78987;SDS011;68389;44.716;37.756;2023-04-06T04:35:03;17.42;;;4.40;;
78987;SDS011;68389;44.716;37.756;2023-04-06T04:36:04;19.75;;;5.05;;
78987;SDS011;68389;44.716;37.756;2023-04-06T04:37:06;24.92;;;6.57;;
78987;SDS011;68389;44.716;37.756;2023-04-06T04:38:07;17.55;;;5.05;;
78987;SDS011;68389;44.716;37.756;2023-04-06T04:39:08;17.63;;;5.10;;
78987;SDS011;68389;44.716;37.756;2023-04-06T04:40:10;20.80;;;4.53;;
78987;SDS011;68389;44.716;37.756;2023-04-06T04:41:12;20.45;;;4.20;;
78987;SDS011;68389;44.716;37.756;2023-04-06T04:42:13;17.08;;;4.97;;
78987;SDS011;68389;44.716;37.756;2023-04-06T04:43:15;16.08;;;4.60;;
78987;SDS011;68389;44.716;37.756;2023-04-06T04:44:16;14.98;;;4.07;;
78987;SDS011;68389;44.716;37.756;2023-04-06T04:45:17;18.88;;;4.40;;
78987;SDS011;68389;44.716;37.756;2023-04-06T04:46:18;14.27;;;4.03;;
78987;SDS011;68389;44.716;37.756;2023-04-06T04:47:20;16.38;;;4.82;;
78987;SDS011;68389;44.716;37.756;2023-04-06T04:48:21;17.27;;;4.50;;
78987;SDS011;68389;44.716;37.756;2023-04-06T04:49:22;17.00;;;4.72;;
78987;SDS011;68389;44.716;37.756;2023-04-06T04:50:24;16.52;;;3.92;;
78987;SDS011;68389;44.716;37.756;2023-04-06T04:51:25;17.80;;;5.28;;
78987;SDS011;68389;44.716;37.756;2023-04-06T04:52:26;14.55;;;4.43;;
78987;SDS011;68389;44.716;37.756;2023-04-06T04:53:28;11.90;;;3.75;;
78987;SDS011;68389;44.716;37.756;2023-04-06T04:54:29;18.60;;;4.85;;
78987;SDS011;68389;44.716;37.756;2023-04-06T04:55:30;14.38;;;4.15;;
78987;SDS011;68389;44.716;37.756;2023-04-06T04:56:32;14.95;;;4.15;;
78987;SDS011;68389;44.716;37.756;2023-04-06T04:57:33;15.70;;;4.18;;
78987;SDS011;68389;44.716;37.756;2023-04-06T04:58:34;14.48;;;4.22;;
78987;SDS011;68389;44.716;37.756;2023-04-06T04:59:36;12.70;;;3.50;;
78987;SDS011;68389;44.716;37.756;2023-04-06T05:00:37;15.98;;;4.45;;
78987;SDS011;68389;44.716;37.756;2023-04-06T05:01:39;15.30;;;5.18;;
78987;SDS011;68389;44.716;37.756;2023-04-06T05:02:40;11.40;;;3.47;;
78987;SDS011;68389;44.716;37.756;2023-04-06T05:03:41;14.55;;;3.70;;
78987;SDS011;68389;44.716;37.756;2023-04-06T05:04:46;15.15;;;3.55;;
78987;SDS011;68389;44.716;37.756;2023-04-06T05:05:48;12.65;;;3.67;;
78987;SDS011;68389;44.716;37.756;2023-04-06T05:06:49;10.77;;;3.38;;
78987;SDS011;68389;44.716;37.756;2023-04-06T05:07:51;13.52;;;3.55;;
78987;SDS011;68389;44.716;37.756;2023-04-06T05:08:52;11.57;;;3.75;;
78987;SDS011;68389;44.716;37.756;2023-04-06T05:09:53;11.65;;;3.63;;
78987;SDS011;68389;44.716;37.756;2023-04-06T05:10:55;12.30;;;3.40;;
78987;SDS011;68389;44.716;37.756;2023-04-06T05:11:56;13.15;;;3.25;;
78987;SDS011;68389;44.716;37.756;2023-04-06T05:12:59;14.63;;;3.72;;
78987;SDS011;68389;44.716;37.756;2023-04-06T05:14:00;11.10;;;3.50;;
78987;SDS011;68389;44.716;37.756;2023-04-06T05:15:01;12.95;;;3.58;;
78987;SDS011;68389;44.716;37.756;2023-04-06T05:16:03;14.23;;;3.47;;
78987;SDS011;68389;44.716;37.756;2023-04-06T05:17:04;9.40;;;3.15;;
78987;SDS011;68389;44.716;37.756;2023-04-06T05:18:06;13.18;;;3.30;;
78987;SDS011;68389;44.716;37.756;2023-04-06T05:19:08;13.10;;;3.03;;
78987;SDS011;68389;44.716;37.756;2023-04-06T05:20:12;11.90;;;3.25;;
78987;SDS011;68389;44.716;37.756;2023-04-06T05:21:13;13.13;;;4.00;;
78987;SDS011;68389;44.716;37.756;2023-04-06T05:22:15;10.13;;;3.13;;
78987;SDS011;68389;44.716;37.756;2023-04-06T05:23:18;11.02;;;3.20;;
78987;SDS011;68389;44.716;37.756;2023-04-06T05:24:19;10.30;;;2.85;;
78987;SDS011;68389;44.716;37.756;2023-04-06T05:25:20;12.43;;;3.50;;
78987;SDS011;68389;44.716;37.756;2023-04-06T05:26:21;10.40;;;3.28;;
78987;SDS011;68389;44.716;37.756;2023-04-06T05:27:23;9.15;;;3.03;;
78987;SDS011;68389;44.716;37.756;2023-04-06T05:28:24;12.93;;;3.22;;
78987;SDS011;68389;44.716;37.756;2023-04-06T05:29:25;12.38;;;3.92;;
78987;SDS011;68389;44.716;37.756;2023-04-06T05:30:27;10.35;;;3.08;;
78987;SDS011;68389;44.716;37.756;2023-04-06T05:31:28;10.45;;;3.10;;
78987;SDS011;68389;44.716;37.756;2023-04-06T05:32:30;11.18;;;3.15;;
78987;SDS011;68389;44.716;37.756;2023-04-06T05:33:31;9.38;;;3.17;;
78987;SDS011;68389;44.716;37.756;2023-04-06T05:34:33;11.05;;;3.10;;
78987;SDS011;68389;44.716;37.756;2023-04-06T05:35:34;9.63;;;2.60;;
78987;SDS011;68389;44.716;37.756;2023-04-06T05:36:35;10.50;;;2.97;;
78987;SDS011;68389;44.716;37.756;2023-04-06T05:37:37;14.18;;;3.67;;
78987;SDS011;68389;44.716;37.756;2023-04-06T05:38:39;11.38;;;2.40;;
78987;SDS011;68389;44.716;37.756;2023-04-06T05:39:40;13.60;;;3.00;;
78987;SDS011;68389;44.716;37.756;2023-04-06T05:40:41;7.82;;;2.72;;
78987;SDS011;68389;44.716;37.756;2023-04-06T05:41:43;11.10;;;2.50;;
78987;SDS011;68389;44.716;37.756;2023-04-06T05:42:45;11.48;;;2.88;;
78987;SDS011;68389;44.716;37.756;2023-04-06T05:43:47;10.27;;;2.38;;
78987;SDS011;68389;44.716;37.756;2023-04-06T05:44:48;9.32;;;2.70;;
78987;SDS011;68389;44.716;37.756;2023-04-06T05:45:50;11.38;;;2.40;;
78987;SDS011;68389;44.716;37.756;2023-04-06T05:46:51;7.90;;;2.80;;
78987;SDS011;68389;44.716;37.756;2023-04-06T05:47:52;10.18;;;2.58;;
78987;SDS011;68389;44.716;37.756;2023-04-06T05:48:54;7.88;;;3.00;;
78987;SDS011;68389;44.716;37.756;2023-04-06T05:49:55;8.15;;;2.50;;
78987;SDS011;68389;44.716;37.756;2023-04-06T05:50:57;8.23;;;2.45;;
78987;SDS011;68389;44.716;37.756;2023-04-06T05:51:58;9.95;;;2.58;;
78987;SDS011;68389;44.716;37.756;2023-04-06T05:52:59;10.82;;;2.88;;
78987;SDS011;68389;44.716;37.756;2023-04-06T05:54:01;8.07;;;2.83;;
78987;SDS011;68389;44.716;37.756;2023-04-06T05:55:02;7.55;;;2.85;;
78987;SDS011;68389;44.716;37.756;2023-04-06T05:56:04;13.10;;;2.78;;
78987;SDS011;68389;44.716;37.756;2023-04-06T05:57:06;9.77;;;2.53;;
78987;SDS011;68389;44.716;37.756;2023-04-06T05:58:07;10.85;;;3.47;;
78987;SDS011;68389;44.716;37.756;2023-04-06T05:59:08;7.63;;;2.58;;
78987;SDS011;68389;44.716;37.756;2023-04-06T06:00:10;7.97;;;2.42;;
78987;SDS011;68389;44.716;37.756;2023-04-06T06:01:11;5.57;;;2.33;;
78987;SDS011;68389;44.716;37.756;2023-04-06T06:02:13;7.75;;;2.47;;
78987;SDS011;68389;44.716;37.756;2023-04-06T06:03:14;9.60;;;2.90;;